Time;durP1;ratioP1;P1;durP2;ratioP2;P2;SDS_P1;SDS_P2;PMS_P1;PMS_P2;Temp;Humidity;BMP_temperature;BMP_pressure;BME280_temperature;BME280_humidity;BME280_pressure;Samples;Min_cycle;Max_cycle;Signal;HPM_P1;HPM_P2
2021/08/01 00:07:31;;;;;;;10;6.3;;;;;;;17.44;100;97977.25;;;;
2021/08/01 00:17:31;;;;;;;14.2;9.4;;;;;;;17.49;100;97985.09;;;;
2021/08/01 00:27:35;;;;;;;10.1;7;;;;;;;17.58;100;97982.94;;;;
2021/08/01 00:37:30;;;;;;;8.2;5.9;;;;;;;17.37;100;97974.42;;;;
2021/08/01 00:47:30;;;;;;;9.4;6.3;;;;;;;17.43;100;97977.59;;;;
2021/08/01 00:57:30;;;;;;;11.9;6;;;;;;;17.36;100;97985.66;;;;
2021/08/01 01:07:29;;;;;;;10.4;5.7;;;;;;;17.32;100;97985.61;;;;
2021/08/01 01:17:29;;;;;;;12.1;5.8;;;;;;;17.15;100;97996.25;;;;
2021/08/01 01:27:28;;;;;;;9.8;6.3;;;;;;;17.06;100;97988.32;;;;
2021/08/01 01:37:28;;;;;;;10.5;6.3;;;;;;;17.2;100;97985.83;;;;
2021/08/01 01:47:28;;;;;;;9.5;5;;;;;;;17.17;100;97953.09;;;;
2021/08/01 01:57:27;;;;;;;8.8;5.7;;;;;;;17.22;100;97950.04;;;;
2021/08/01 02:07:27;;;;;;;7.5;6.4;;;;;;;17.28;100;97948.59;;;;
2021/08/01 02:17:26;;;;;;;13.8;9.1;;;;;;;17.47;100;97935.64;;;;
2021/08/01 02:27:26;;;;;;;7.8;5.7;;;;;;;17.63;100;97929.27;;;;
2021/08/01 02:37:26;;;;;;;8.4;6.6;;;;;;;17.51;100;97922.86;;;;
2021/08/01 02:47:25;;;;;;;9.2;6.5;;;;;;;17.47;100;97926.68;;;;
2021/08/01 02:57:25;;;;;;;7.4;5.9;;;;;;;17.37;100;97927.31;;;;
2021/08/01 03:07:25;;;;;;;11.2;6.7;;;;;;;17.32;100;97914.8;;;;
2021/08/01 03:17:24;;;;;;;9.9;6.5;;;;;;;17.27;100;97898;;;;
2021/08/01 03:27:24;;;;;;;9.8;6.7;;;;;;;17.32;100;97908.59;;;;
2021/08/01 03:37:23;;;;;;;8.7;6.9;;;;;;;17.36;100;97920.29;;;;
2021/08/01 03:47:23;;;;;;;12;6.5;;;;;;;17.58;100;97890.28;;;;
2021/08/01 03:57:23;;;;;;;10.5;7.3;;;;;;;17.62;100;97873.98;;;;
2021/08/01 04:07:22;;;;;;;7.5;5.7;;;;;;;17.71;100;97849.94;;;;
2021/08/01 04:17:23;;;;;;;10.4;5.6;;;;;;;17.85;100;97882.81;;;;
2021/08/01 04:27:22;;;;;;;10.1;5.8;;;;;;;18.24;100;97868.81;;;;
2021/08/01 04:37:22;;;;;;;8.3;5.1;;;;;;;18.44;100;97879.15;;;;
2021/08/01 04:47:23;;;;;;;9.5;6.8;;;;;;;19.13;100;97881.27;;;;
2021/08/01 04:57:22;;;;;;;10.8;6.9;;;;;;;19.74;100;97914.06;;;;
2021/08/01 05:07:22;;;;;;;10.7;7.8;;;;;;;20.03;100;97917.67;;;;
2021/08/01 05:17:22;;;;;;;11.3;6.9;;;;;;;20.3;100;97904.51;;;;
2021/08/01 05:27:22;;;;;;;9.6;6.7;;;;;;;20.37;100;97935.42;;;;
2021/08/01 05:37:22;;;;;;;10.6;7.6;;;;;;;20.54;100;97933.88;;;;
2021/08/01 05:47:22;;;;;;;12.2;7.1;;;;;;;20.63;100;97941.7;;;;
2021/08/01 05:57:23;;;;;;;9.8;6.1;;;;;;;20.36;100;97925.64;;;;
2021/08/01 06:07:23;;;;;;;10.5;7.3;;;;;;;20.52;100;97934.26;;;;
2021/08/01 06:17:23;;;;;;;13.5;7.5;;;;;;;20.64;100;97927.64;;;;
2021/08/01 06:27:23;;;;;;;10.2;7;;;;;;;20.81;100;97912.39;;;;
2021/08/01 06:37:23;;;;;;;10.3;7.6;;;;;;;21.25;100;97906.51;;;;
2021/08/01 06:47:24;;;;;;;9.5;7.5;;;;;;;21.31;100;97915.92;;;;
2021/08/01 06:57:24;;;;;;;9.9;7;;;;;;;21.74;100;97927.55;;;;
2021/08/01 07:07:24;;;;;;;16;8.2;;;;;;;21.95;100;97911.83;;;;
2021/08/01 07:17:25;;;;;;;9.2;6.5;;;;;;;22.35;100;97906.92;;;;
2021/08/01 07:27:25;;;;;;;12;7.4;;;;;;;22.25;100;97902.28;;;;
2021/08/01 07:37:26;;;;;;;11;5.5;;;;;;;22;100;97891.43;;;;
2021/08/01 07:47:27;;;;;;;9.9;5.1;;;;;;;22.13;100;97848.61;;;;
2021/08/01 07:57:27;;;;;;;11.8;7.9;;;;;;;22.16;100;97805.85;;;;
2021/08/01 08:07:27;;;;;;;9;5.9;;;;;;;22.24;100;97774.44;;;;
2021/08/01 08:17:33;;;;;;;9.2;5.2;;;;;;;22.79;100;97788.89;;;;
2021/08/01 08:27:28;;;;;;;10.3;5.2;;;;;;;22.59;100;97763.16;;;;
2021/08/01 08:37:29;;;;;;;7.4;4.6;;;;;;;23.04;100;97775.69;;;;
2021/08/01 08:47:36;;;;;;;6.3;4.6;;;;;;;23.02;100;97780.8;;;;
2021/08/01 08:57:30;;;;;;;8.4;6.7;;;;;;;22.93;100;97849.21;;;;
2021/08/01 09:07:31;;;;;;;5.5;4;;;;;;;22.76;100;97893.33;;;;
2021/08/01 09:17:31;;;;;;;9;5.1;;;;;;;22.37;100;97916.31;;;;
2021/08/01 09:27:32;;;;;;;8.5;5.6;;;;;;;21.96;100;97927.12;;;;
2021/08/01 09:37:33;;;;;;;7.3;4.5;;;;;;;21.64;100;97906.42;;;;
2021/08/01 09:47:33;;;;;;;6.6;4.3;;;;;;;21.01;100;97843.11;;;;
2021/08/01 09:57:34;;;;;;;7.2;3;;;;;;;20.85;100;97806.35;;;;
2021/08/01 10:07:34;;;;;;;6.4;3.9;;;;;;;21.52;100;97801.47;;;;
2021/08/01 10:17:34;;;;;;;6.4;3.4;;;;;;;22.19;100;97728.97;;;;
2021/08/01 10:27:35;;;;;;;4.9;2.7;;;;;;;23.21;100;97693.41;;;;
2021/08/01 10:37:36;;;;;;;16.8;3.3;;;;;;;22.84;100;97730.73;;;;
2021/08/01 10:47:36;;;;;;;4.7;2.8;;;;;;;22.24;100;97706.59;;;;
2021/08/01 10:57:37;;;;;;;4;2.2;;;;;;;21.85;100;97742.53;;;;
2021/08/01 11:07:37;;;;;;;4.8;2.3;;;;;;;22.25;100;97712.87;;;;
2021/08/01 11:17:38;;;;;;;3.8;2;;;;;;;22.33;100;97714.34;;;;
2021/08/01 11:27:38;;;;;;;4.2;2;;;;;;;22.48;100;97656.16;;;;
2021/08/01 11:37:39;;;;;;;3.4;1.6;;;;;;;22.32;100;97677.87;;;;
2021/08/01 11:47:40;;;;;;;4;2.1;;;;;;;22.99;100;97668.94;;;;
2021/08/01 11:57:42;;;;;;;4.4;1.6;;;;;;;23.16;100;97647.91;;;;
2021/08/01 12:07:41;;;;;;;4.7;1.6;;;;;;;23.02;100;97651.61;;;;
2021/08/01 12:17:41;;;;;;;2;1;;;;;;;23.05;100;97620.55;;;;
2021/08/01 12:27:42;;;;;;;3.2;1.2;;;;;;;22.98;100;97622.61;;;;
2021/08/01 12:37:43;;;;;;;4;1.7;;;;;;;22.91;100;97620.73;;;;
2021/08/01 12:47:43;;;;;;;3.9;1.5;;;;;;;22.77;100;97612.67;;;;
2021/08/01 12:57:44;;;;;;;4.1;2;;;;;;;23.15;100;97618.09;;;;
2021/08/01 13:07:45;;;;;;;3;1.4;;;;;;;23.94;100;97598.02;;;;
2021/08/01 13:17:45;;;;;;;2.5;1.4;;;;;;;24.69;100;97608.43;;;;
2021/08/01 13:27:46;;;;;;;2.2;1.2;;;;;;;25.2;100;97598.7;;;;
2021/08/01 13:37:47;;;;;;;2.2;1.2;;;;;;;26.15;100;97589.33;;;;
2021/08/01 13:47:48;;;;;;;1.8;1;;;;;;;26.39;100;97587.92;;;;
2021/08/01 13:57:49;;;;;;;5.5;2.5;;;;;;;26.51;100;97562.33;;;;
2021/08/01 14:07:50;;;;;;;2.9;1.7;;;;;;;25.89;100;97555.31;;;;
2021/08/01 14:17:51;;;;;;;1.8;1.2;;;;;;;25.78;100;97533.5;;;;
2021/08/01 14:27:53;;;;;;;3.9;1.4;;;;;;;25.66;100;97541.69;;;;
2021/08/01 14:37:54;;;;;;;5.1;1.7;;;;;;;25.14;100;97545.27;;;;
2021/08/01 14:47:57;;;;;;;4.7;2.3;;;;;;;24.63;100;97516.45;;;;
2021/08/01 14:57:57;;;;;;;3.4;1.1;;;;;;;24.52;100;97497.39;;;;
2021/08/01 15:07:56;;;;;;;3.8;2;;;;;;;24.38;100;97455.59;;;;
2021/08/01 15:17:59;;;;;;;3.2;1.3;;;;;;;24.1;100;97440.41;;;;
2021/08/01 15:27:58;;;;;;;4.6;2.6;;;;;;;24.02;100;97428.77;;;;
2021/08/01 15:37:59;;;;;;;6.1;2.3;;;;;;;23.68;100;97431.02;;;;
2021/08/01 15:48:00;;;;;;;4;1.9;;;;;;;23.36;100;97430.8;;;;
2021/08/01 15:58:00;;;;;;;3.9;2.1;;;;;;;23.14;100;97435.89;;;;
2021/08/01 16:08:01;;;;;;;4.4;2.2;;;;;;;22.94;100;97449.53;;;;
2021/08/01 16:18:01;;;;;;;3.8;2;;;;;;;22.52;100;97430.93;;;;
2021/08/01 16:28:02;;;;;;;10.7;5.6;;;;;;;22.15;100;97409.84;;;;
2021/08/01 16:38:02;;;;;;;12.6;9.3;;;;;;;21.73;100;97411.11;;;;
2021/08/01 16:48:03;;;;;;;6;3.9;;;;;;;21.44;100;97396.17;;;;
2021/08/01 16:58:06;;;;;;;8.2;3.9;;;;;;;21.45;100;97373.06;;;;
2021/08/01 17:08:03;;;;;;;6.6;3.5;;;;;;;21.06;100;97417.25;;;;
2021/08/01 17:18:04;;;;;;;8.3;3.3;;;;;;;20.86;100;97438.16;;;;
2021/08/01 17:28:05;;;;;;;7.8;4.7;;;;;;;20.78;100;97450.34;;;;
2021/08/01 17:38:04;;;;;;;8.3;4.6;;;;;;;20.5;100;97443.88;;;;
2021/08/01 17:48:04;;;;;;;8.3;4.1;;;;;;;20.34;100;97440.81;;;;
2021/08/01 17:58:05;;;;;;;7;4.9;;;;;;;19.97;100;97471.44;;;;
2021/08/01 18:08:05;;;;;;;7;3.9;;;;;;;19.49;100;97448.53;;;;
2021/08/01 18:18:05;;;;;;;5.9;3;;;;;;;19.5;100;97420.03;;;;
2021/08/01 18:28:06;;;;;;;5.7;3.4;;;;;;;19.38;100;97412.2;;;;
2021/08/01 18:38:05;;;;;;;6.6;4.1;;;;;;;19.35;100;97410.27;;;;
2021/08/01 18:48:05;;;;;;;5.5;3.4;;;;;;;19.15;100;97434.5;;;;
2021/08/01 18:58:05;;;;;;;10.3;5;;;;;;;18.99;100;97455.94;;;;
2021/08/01 19:08:05;;;;;;;9;4.3;;;;;;;18.91;100;97457.91;;;;
2021/08/01 19:18:05;;;;;;;5.6;4;;;;;;;18.79;100;97452.03;;;;
2021/08/01 19:28:05;;;;;;;7.2;4;;;;;;;18.53;100;97462.12;;;;
2021/08/01 19:38:04;;;;;;;10.6;4.2;;;;;;;18.57;100;97481.23;;;;
2021/08/01 19:48:04;;;;;;;6.6;4.7;;;;;;;18.53;100;97477.73;;;;
2021/08/01 19:58:04;;;;;;;4.7;2.3;;;;;;;18.13;100;97480.67;;;;
2021/08/01 20:08:04;;;;;;;6.2;2.7;;;;;;;18.21;100;97468.63;;;;
2021/08/01 20:18:04;;;;;;;6.6;3.9;;;;;;;18.12;100;97462.77;;;;
2021/08/01 20:28:04;;;;;;;8.5;5.4;;;;;;;18.02;100;97477.9;;;;
2021/08/01 20:38:04;;;;;;;7.1;5.3;;;;;;;17.95;100;97478.65;;;;
2021/08/01 20:48:04;;;;;;;5.7;3.3;;;;;;;17.83;100;97503.52;;;;
2021/08/01 20:58:04;;;;;;;4.3;1.6;;;;;;;17.17;100;97520.14;;;;
2021/08/01 21:08:03;;;;;;;3;1.3;;;;;;;16.97;100;97546.8;;;;
2021/08/01 21:18:03;;;;;;;3.8;1.1;;;;;;;16.54;100;97559.13;;;;
2021/08/01 21:28:03;;;;;;;1.6;1;;;;;;;16.32;100;97584.49;;;;
2021/08/01 21:38:02;;;;;;;12.1;2.8;;;;;;;16.03;100;97575.98;;;;
2021/08/01 21:48:02;;;;;;;9;4.2;;;;;;;15.75;100;97583.72;;;;
2021/08/01 21:58:02;;;;;;;5;3.1;;;;;;;15.53;100;97576.38;;;;
2021/08/01 22:08:01;;;;;;;6.5;2.4;;;;;;;15.54;100;97602.39;;;;
2021/08/01 22:18:00;;;;;;;5.1;2.5;;;;;;;15.56;100;97621.81;;;;
2021/08/01 22:28:00;;;;;;;5.1;3;;;;;;;15.38;100;97631.55;;;;
2021/08/01 22:37:59;;;;;;;5.9;3.4;;;;;;;15.31;100;97655.86;;;;
2021/08/01 22:47:59;;;;;;;7.1;4.5;;;;;;;15.23;100;97670.47;;;;
2021/08/01 22:57:58;;;;;;;4.4;3;;;;;;;15.19;100;97681.27;;;;
2021/08/01 23:07:58;;;;;;;5;3.5;;;;;;;15.19;100;97694.05;;;;
2021/08/01 23:17:58;;;;;;;7.1;5;;;;;;;15.23;100;97705.77;;;;
2021/08/01 23:27:57;;;;;;;6.7;4.2;;;;;;;15.3;100;97705.89;;;;
2021/08/01 23:37:56;;;;;;;8.1;5.6;;;;;;;15.3;100;97722.97;;;;
2021/08/01 23:47:56;;;;;;;6.6;3.9;;;;;;;15.31;100;97738.1;;;;
2021/08/01 23:57:56;;;;;;;6.7;3.5;;;;;;;15.33;100;97749.41;;;;
